createdAt,value
2023-02-17T00:01:16.864Z,65.87
2023-02-17T00:06:20.970Z,67.23
2023-02-17T00:11:25.185Z,77.67
2023-02-17T00:16:29.916Z,74.77
2023-02-17T00:21:36.648Z,91.57
2023-02-17T00:26:39.360Z,89.67
2023-02-17T00:31:44.524Z,81.70
2023-02-17T00:36:49.022Z,60.93
2023-02-17T00:41:50.830Z,67.37
2023-02-17T00:46:52.779Z,73.33
2023-02-17T00:52:00.834Z,58.20
2023-02-17T00:57:02.572Z,72.83
2023-02-17T01:02:06.994Z,47.70
2023-02-17T01:07:11.053Z,62.37
2023-02-17T01:12:13.614Z,93.07
2023-02-17T01:17:17.552Z,75.17
2023-02-17T01:22:21.861Z,66.07
2023-02-17T01:27:25.938Z,73.83
2023-02-17T01:32:29.408Z,61.40
2023-02-17T01:37:33.890Z,78.23
2023-02-17T01:42:37.843Z,47.00
2023-02-17T01:47:44.404Z,56.97
2023-02-17T01:52:52.146Z,64.67
2023-02-17T01:57:56.648Z,57.70
2023-02-17T02:03:02.327Z,69.90
2023-02-17T02:08:04.442Z,78.83
2023-02-17T02:13:09.041Z,67.27
2023-02-17T02:18:37.338Z,72.67
2023-02-17T02:23:47.339Z,64.07
2023-02-17T02:29:10.633Z,53.77
2023-02-17T02:34:27.406Z,58.23
2023-02-17T02:39:37.261Z,67.90
2023-02-17T02:44:41.667Z,101.37
2023-02-17T02:49:45.726Z,70.37
2023-02-17T02:54:57.388Z,72.10
2023-02-17T03:00:31.290Z,82.13
2023-02-17T03:05:55.635Z,82.13
2023-02-17T03:10:57.812Z,74.80
2023-02-17T03:16:00.351Z,107.70
2023-02-17T03:21:07.114Z,78.23
2023-02-17T03:26:08.850Z,55.20
2023-02-17T03:31:10.811Z,84.57
2023-02-17T03:36:18.568Z,77.57
2023-02-17T03:41:21.293Z,89.40
2023-02-17T03:46:23.013Z,82.63
2023-02-17T03:51:25.196Z,77.77
2023-02-17T03:56:29.486Z,79.57
2023-02-17T04:01:32.283Z,75.47
2023-02-17T04:06:34.130Z,68.43
2023-02-17T04:11:37.032Z,74.63
2023-02-17T04:16:41.919Z,82.17
2023-02-17T04:21:46.811Z,71.60
2023-02-17T04:26:48.780Z,56.67
2023-02-17T04:31:50.606Z,63.67
2023-02-17T04:36:57.745Z,62.23
2023-02-17T04:41:59.442Z,53.77
2023-02-17T04:47:04.646Z,76.53
2023-02-17T04:52:09.490Z,67.13
2023-02-17T04:57:13.528Z,67.27
2023-02-17T05:02:21.538Z,65.53
2023-02-17T05:07:23.542Z,62.73
2023-02-17T05:12:27.448Z,54.93
2023-02-17T05:17:31.796Z,48.77
2023-02-17T05:22:35.888Z,45.50
2023-02-17T05:27:40.905Z,53.73
2023-02-17T05:32:42.966Z,49.03
2023-02-17T05:37:44.667Z,60.03
2023-02-17T05:42:46.369Z,56.00
2023-02-17T05:47:48.062Z,50.13
2023-02-17T05:52:49.815Z,50.70
2023-02-17T05:57:53.736Z,61.43
2023-02-17T06:02:58.705Z,70.73
2023-02-17T06:08:07.021Z,75.17
2023-02-17T06:13:09.131Z,78.23
2023-02-17T06:18:11.526Z,69.13
2023-02-17T06:23:13.249Z,57.50
2023-02-17T06:28:14.991Z,69.83
2023-02-17T06:33:18.987Z,68.77
2023-02-17T06:38:22.789Z,65.23
2023-02-17T06:43:26.834Z,46.23
2023-02-17T06:48:28.550Z,60.77
2023-02-17T06:53:32.311Z,55.67
2023-02-17T06:58:36.304Z,41.43
2023-02-17T07:03:41.001Z,46.77
2023-02-17T07:08:42.665Z,39.53
2023-02-17T07:13:49.717Z,43.77
2023-02-17T07:18:54.021Z,54.77
2023-02-17T07:24:00.706Z,41.97
2023-02-17T07:29:04.624Z,31.97
2023-02-17T07:34:06.418Z,60.97
2023-02-17T07:39:08.178Z,44.03
2023-02-17T07:44:12.067Z,41.67
2023-02-17T07:49:14.827Z,64.63
2023-02-17T07:54:21.451Z,51.20
2023-02-17T07:59:23.147Z,70.85
2023-02-17T08:04:27.146Z,57.33
2023-02-17T08:09:49.531Z,47.77
2023-02-17T08:14:54.603Z,71.17
2023-02-17T08:20:08.714Z,57.50
2023-02-17T08:25:13.249Z,91.37
2023-02-17T08:30:15.222Z,74.07
2023-02-17T08:35:22.631Z,74.87
2023-02-17T08:40:24.859Z,118.43
2023-02-17T08:45:26.697Z,117.40
2023-02-17T08:50:28.420Z,75.97
2023-02-17T08:55:35.529Z,62.17
2023-02-17T09:00:48.495Z,108.27
2023-02-17T09:05:55.547Z,94.37
2023-02-17T09:11:02.867Z,119.70
2023-02-17T09:16:08.430Z,73.93
2023-02-17T09:21:13.329Z,66.17
2023-02-17T09:26:24.910Z,72.67
2023-02-17T09:31:27.635Z,76.20
2023-02-17T09:36:32.430Z,67.50
2023-02-17T09:41:55.421Z,56.13
2023-02-17T09:47:20.577Z,52.73
2023-02-17T09:52:36.027Z,62.33
2023-02-17T09:57:53.468Z,49.67
2023-02-17T10:03:05.347Z,51.43
2023-02-17T10:08:11.437Z,44.20
2023-02-17T10:13:17.323Z,59.10
2023-02-17T10:18:32.780Z,52.70
2023-02-17T10:23:35.203Z,44.97
2023-02-17T10:28:52.498Z,39.23
2023-02-17T10:33:57.502Z,49.30
2023-02-17T10:39:11.409Z,40.87
2023-02-17T10:44:17.710Z,40.27
2023-02-17T10:49:34.816Z,25.27
2023-02-17T10:54:59.927Z,34.97
2023-02-17T11:00:11.357Z,29.53
2023-02-17T11:05:35.747Z,26.30
2023-02-17T11:10:43.575Z,29.65
2023-02-17T11:15:46.875Z,24.40
2023-02-17T11:21:00.443Z,32.40
2023-02-17T11:26:14.447Z,24.37
2023-02-17T11:31:27.635Z,22.70
2023-02-17T11:36:31.008Z,20.50
2023-02-17T11:41:42.217Z,19.07
2023-02-17T11:46:53.540Z,22.52
2023-02-17T11:52:00.628Z,16.67
2023-02-17T11:57:25.791Z,20.93
2023-02-17T12:02:46.513Z,11.82
2023-02-17T12:08:00.403Z,14.10
2023-02-17T12:13:14.497Z,12.50
2023-02-17T12:18:30.426Z,14.83
2023-02-17T12:23:41.443Z,7.67
2023-02-17T12:29:11.909Z,16.30
2023-02-17T12:34:43.730Z,15.32
2023-02-17T12:39:55.609Z,11.63
2023-02-17T12:45:04.714Z,13.25
2023-02-17T12:50:20.221Z,12.90
2023-02-17T12:55:25.507Z,11.70
2023-02-17T13:00:36.593Z,9.02
2023-02-17T13:05:44.406Z,13.35
2023-02-17T13:10:46.294Z,10.13
2023-02-17T13:15:48.403Z,11.10
2023-02-17T13:20:57.842Z,11.93
2023-02-17T13:26:19.080Z,10.52
2023-02-17T13:31:24.541Z,6.75
2023-02-17T13:36:32.792Z,8.35
2023-02-17T13:41:48.140Z,8.68
2023-02-17T13:46:54.719Z,8.98
2023-02-17T13:52:27.194Z,15.32
2023-02-17T13:57:35.277Z,14.18
2023-02-17T14:02:45.053Z,14.43
2023-02-17T14:07:47.843Z,9.18
2023-02-17T14:12:59.079Z,18.38
2023-02-17T14:18:15.189Z,16.15
2023-02-17T14:23:22.244Z,25.17
2023-02-17T14:28:27.308Z,25.85
2023-02-17T14:33:29.382Z,18.00
2023-02-17T14:38:37.383Z,25.13
2023-02-17T14:43:40.731Z,27.27
2023-02-17T14:48:45.551Z,25.45
2023-02-17T14:53:50.144Z,21.52
2023-02-17T14:58:56.054Z,27.88
2023-02-17T15:03:58.094Z,28.77
2023-02-17T15:09:01.317Z,21.73
2023-02-17T15:14:05.983Z,33.87
2023-02-17T15:19:09.637Z,28.23
2023-02-17T15:24:18.426Z,25.50
2023-02-17T15:29:23.599Z,29.63
2023-02-17T15:34:31.939Z,31.50
2023-02-17T15:39:36.805Z,24.27
2023-02-17T15:44:45.936Z,16.70
2023-02-17T15:49:50.306Z,25.50
2023-02-17T15:54:53.960Z,38.57
2023-02-17T15:59:58.150Z,29.30
2023-02-17T16:05:00.738Z,29.20
2023-02-17T16:10:08.600Z,23.67
2023-02-17T16:15:22.756Z,28.77
2023-02-17T16:20:29.425Z,35.07
2023-02-17T16:25:32.028Z,25.33
2023-02-17T16:30:39.626Z,29.53
2023-02-17T16:35:43.533Z,36.50
2023-02-17T16:40:50.499Z,27.53
2023-02-17T16:45:57.401Z,40.27
2023-02-17T16:51:06.675Z,22.20
2023-02-17T16:56:18.686Z,29.73
2023-02-17T17:01:22.919Z,29.00
2023-02-17T17:06:32.367Z,41.90
2023-02-17T17:11:39.735Z,37.90
2023-02-17T17:16:44.211Z,27.67
2023-02-17T17:21:47.075Z,31.60
2023-02-17T17:26:52.091Z,29.83
2023-02-17T17:31:55.422Z,30.20
2023-02-17T17:37:05.694Z,26.10
2023-02-17T17:42:08.072Z,39.60
2023-02-17T17:47:29.989Z,28.27
2023-02-17T17:52:34.780Z,30.07
2023-02-17T17:57:36.603Z,15.40
2023-02-17T18:02:39.473Z,37.40
2023-02-17T18:07:43.316Z,33.90
2023-02-17T18:12:45.731Z,32.23
2023-02-17T18:17:48.219Z,31.60
2023-02-17T18:22:50.486Z,33.43
2023-02-17T18:27:52.796Z,34.90
2023-02-17T18:32:55.344Z,32.67
2023-02-17T18:37:57.570Z,29.43
2023-02-17T18:43:02.814Z,23.33
2023-02-17T18:48:08.644Z,33.17
2023-02-17T18:53:13.467Z,33.37
2023-02-17T18:58:15.346Z,37.07
2023-02-17T19:03:19.909Z,34.80
2023-02-17T19:08:22.733Z,35.93
2023-02-17T19:13:28.293Z,60.60
2023-02-17T19:18:30.777Z,45.27
2023-02-17T19:23:33.004Z,44.10
2023-02-17T19:28:38.585Z,25.77
2023-02-17T19:33:45.790Z,20.73
2023-02-17T19:38:48.873Z,37.60
2023-02-17T19:43:53.670Z,33.60
2023-02-17T19:48:57.604Z,20.80
2023-02-17T19:54:00.597Z,31.47
2023-02-17T19:59:03.715Z,30.07
2023-02-17T20:04:08.767Z,30.80
2023-02-17T20:09:17.691Z,38.00
2023-02-17T20:14:20.507Z,30.17
2023-02-17T20:19:25.147Z,28.80
2023-02-17T20:24:30.353Z,32.10
2023-02-17T20:29:32.267Z,29.17
2023-02-17T20:34:38.693Z,29.07
2023-02-17T20:39:42.152Z,35.17
2023-02-17T20:44:50.220Z,40.23
2023-02-17T20:49:52.178Z,18.90
2023-02-17T20:54:54.982Z,31.97
2023-02-17T20:59:57.026Z,21.80
2023-02-17T21:04:59.047Z,28.87
2023-02-17T21:10:02.372Z,30.43
2023-02-17T21:15:06.685Z,31.67
2023-02-17T21:20:10.432Z,34.83
2023-02-17T21:25:15.285Z,27.57
2023-02-17T21:30:18.790Z,17.63
2023-02-17T21:35:25.407Z,21.97
2023-02-17T21:40:27.200Z,21.53
2023-02-17T21:45:29.102Z,35.43
2023-02-17T21:50:35.401Z,28.40
2023-02-17T21:55:39.589Z,27.40
2023-02-17T22:00:54.167Z,34.23
2023-02-17T22:05:58.305Z,29.33
2023-02-17T22:11:00.096Z,31.43
2023-02-17T22:16:02.231Z,34.27
2023-02-17T22:21:13.775Z,27.33
2023-02-17T22:26:19.416Z,27.47
2023-02-17T22:31:23.515Z,30.53
2023-02-17T22:36:27.456Z,29.93
2023-02-17T22:41:33.741Z,32.53
2023-02-17T22:46:37.975Z,24.77
2023-02-17T22:51:45.149Z,25.13
2023-02-17T22:56:46.860Z,27.37
2023-02-17T23:01:53.568Z,28.40
2023-02-17T23:06:59.326Z,30.67
2023-02-17T23:12:05.746Z,28.70
2023-02-17T23:17:12.363Z,34.07
2023-02-17T23:22:16.783Z,35.37
2023-02-17T23:27:18.684Z,32.00
2023-02-17T23:32:20.450Z,34.10
2023-02-17T23:37:27.488Z,22.23
2023-02-17T23:42:31.408Z,22.13
2023-02-17T23:47:36.489Z,30.50
2023-02-17T23:52:42.048Z,26.40
2023-02-17T23:57:44.107Z,31.13
